Hovedside
METAR-TAF:

METAR-TAF

Lufthavner :

Jinotega, Nicaragua

breddegrad: 13-05N, lengdegrad: 085-59W, høyde over havet: 985 m

Gjeldene værobservasjon

Denne rapporten ble laget for 11 timer og 42 minutter siden, klokken 23:00 UTC
Vind 16 kt fra Nord
Temperatur 23°C
Luftfuktighet 47%
Trykk 1016 hPa
Sikt 10 km eller mer
Få skyer i en høyde av 2000 ft

METAR: MNJG 252300Z 36016KT 9999 FEW020 23/11 Q1016

Tid: 04:42 (10:42 UTC)


TAF: fraværende

Værobservasjoner og værvarsel for over 4000 flyplasser (METAR- og TAF-rapporter).

Tilgjengelige stasjoner er representert av de røde og gule prikkene på kartet.

Hold musepekeren over prikken for å se navnet på stasjonen.

Klikk så for å se værobservasjoner og -varsler.

For å forandre kartet kan du klikke på den grønne knappen med svart kryss for å zoome inn, på den grønne knappen med strek for å zoome ut, eller på de grønne pilene for å se tilstøtende kart.


METAR-TAF: